createdAt,value
2023-01-09T00:03:50.401Z,99162.25
2023-01-09T00:08:52.072Z,99169.97
2023-01-09T00:13:53.635Z,99171.69
2023-01-09T00:18:55.267Z,99183.59
2023-01-09T00:23:58.177Z,99178.31
2023-01-09T00:29:01.081Z,99180.84
2023-01-09T00:34:08.590Z,99177.38
2023-01-09T00:39:10.183Z,99176.41
2023-01-09T00:44:26.313Z,99190.88
2023-01-09T00:49:35.064Z,99195.06
2023-01-09T00:54:37.968Z,99197.47
2023-01-09T00:59:41.339Z,99204.34
2023-01-09T01:05:01.548Z,99212.06
2023-01-09T01:10:04.898Z,99200.94
2023-01-09T01:15:12.302Z,99206.75
2023-01-09T01:20:16.879Z,99212.81
2023-01-09T01:25:19.888Z,99211.03
2023-01-09T01:30:24.351Z,99211.88
2023-01-09T01:35:26.841Z,99215.34
2023-01-09T01:40:29.589Z,99218.72
2023-01-09T01:45:33.079Z,99222.19
2023-01-09T01:50:46.418Z,99221.22
2023-01-09T01:56:11.085Z,99225.38
2023-01-09T02:01:12.695Z,99222.75
2023-01-09T02:06:14.251Z,99215.91
2023-01-09T02:11:19.473Z,99217.53
2023-01-09T02:16:52.010Z,99224.31
2023-01-09T02:22:21.385Z,99228.47
2023-01-09T02:27:52.798Z,99240.47
2023-01-09T02:33:19.062Z,99232.84
2023-01-09T02:38:32.073Z,99227.69
2023-01-09T02:43:33.487Z,99227.66
2023-01-09T02:48:34.943Z,99237.06
2023-01-09T02:53:47.012Z,99237.88
2023-01-09T02:59:14.187Z,99231.00
2023-01-09T03:04:34.488Z,99224.09
2023-01-09T03:09:41.297Z,99215.56
2023-01-09T03:14:46.585Z,99215.50
2023-01-09T03:19:50.756Z,99211.09
2023-01-09T03:24:52.226Z,99212.72
2023-01-09T03:29:54.661Z,99205.00
2023-01-09T03:34:56.091Z,99204.06
2023-01-09T03:39:57.765Z,99209.25
2023-01-09T03:44:59.207Z,99200.69
2023-01-09T03:50:00.605Z,99197.13
2023-01-09T03:55:02.156Z,99215.13
2023-01-09T04:00:04.779Z,99216.59
2023-01-09T04:05:06.927Z,99217.38
2023-01-09T04:10:10.495Z,99223.34
2023-01-09T04:15:12.039Z,99213.00
2023-01-09T04:20:13.985Z,99215.50
2023-01-09T04:25:15.563Z,99227.44
2023-01-09T04:30:17.326Z,99221.38
2023-01-09T04:35:20.116Z,99238.44
2023-01-09T04:40:21.623Z,99243.75
2023-01-09T04:45:23.134Z,99238.69
2023-01-09T04:50:24.631Z,99238.59
2023-01-09T04:55:26.132Z,99232.78
2023-01-09T05:00:27.592Z,99238.75
2023-01-09T05:05:29.076Z,99225.97
2023-01-09T05:10:30.477Z,99230.25
2023-01-09T05:15:31.919Z,99232.88
2023-01-09T05:20:33.352Z,99238.00
2023-01-09T05:25:34.762Z,99232.97
2023-01-09T05:30:36.540Z,99235.63
2023-01-09T05:35:37.946Z,99225.47
2023-01-09T05:40:40.565Z,99221.13
2023-01-09T05:45:43.184Z,99216.00
2023-01-09T05:50:44.713Z,99207.47
2023-01-09T05:55:46.151Z,99208.31
2023-01-09T06:00:48.540Z,99201.53
2023-01-09T06:05:51.679Z,99203.28
2023-01-09T06:10:53.227Z,99207.75
2023-01-09T06:15:54.652Z,99207.84
2023-01-09T06:20:56.127Z,99198.56
2023-01-09T06:25:57.548Z,99192.66
2023-01-09T06:30:59.101Z,99191.94
2023-01-09T06:36:00.575Z,99192.84
2023-01-09T06:41:02.090Z,99200.59
2023-01-09T06:46:05.703Z,99197.25
2023-01-09T06:51:07.293Z,99208.47
2023-01-09T06:56:08.875Z,99194.00
2023-01-09T07:01:10.489Z,99194.91
2023-01-09T07:06:12.256Z,99203.44
2023-01-09T07:11:13.655Z,99202.66
2023-01-09T07:16:15.103Z,99204.34
2023-01-09T07:21:16.580Z,99211.19
2023-01-09T07:26:18.019Z,99210.34
2023-01-09T07:31:19.448Z,99220.66
2023-01-09T07:36:20.965Z,99209.53
2023-01-09T07:41:22.393Z,99215.53
2023-01-09T07:46:23.946Z,99216.38
2023-01-09T07:51:25.498Z,99219.84
2023-01-09T07:56:26.970Z,99225.81
2023-01-09T08:01:28.523Z,99235.28
2023-01-09T08:06:31.466Z,99244.63
2023-01-09T08:11:32.891Z,99252.31
2023-01-09T08:16:36.765Z,99263.38
2023-01-09T08:21:40.008Z,99269.28
2023-01-09T08:26:41.496Z,99272.72
2023-01-09T08:31:43.004Z,99282.97
2023-01-09T08:36:44.628Z,99264.16
2023-01-09T08:42:05.302Z,99271.84
2023-01-09T08:47:07.134Z,99279.53
2023-01-09T08:52:12.205Z,99268.44
2023-01-09T08:57:13.660Z,99293.28
2023-01-09T09:02:15.224Z,99307.81
2023-01-09T09:07:16.837Z,99317.28
2023-01-09T09:12:18.274Z,99316.44
2023-01-09T09:17:19.725Z,99326.75
2023-01-09T09:22:21.251Z,99331.94
2023-01-09T09:27:22.684Z,99340.59
2023-01-09T09:32:24.321Z,99352.63
2023-01-09T09:37:25.718Z,99363.69
2023-01-09T09:43:01.192Z,99373.94
2023-01-09T09:48:37.613Z,99397.94
2023-01-09T09:53:48.159Z,99397.06
2023-01-09T09:58:53.449Z,99418.59
2023-01-09T10:04:00.531Z,99416.94
2023-01-09T10:09:20.705Z,99423.94
2023-01-09T10:14:24.690Z,99442.94
2023-01-09T10:19:51.702Z,99450.75
2023-01-09T10:25:06.849Z,99462.72
2023-01-09T10:30:18.396Z,99479.81
2023-01-09T10:35:27.461Z,99484.94
2023-01-09T10:41:01.708Z,99498.63
2023-01-09T10:46:14.435Z,99494.28
2023-01-09T10:51:21.257Z,99509.56
2023-01-09T10:56:23.689Z,99504.47
2023-01-09T11:01:35.472Z,99513.16
2023-01-09T11:07:00.220Z,99520.06
2023-01-09T11:12:26.276Z,99527.16
2023-01-09T11:17:27.704Z,99532.41
2023-01-09T11:22:29.621Z,99544.34
2023-01-09T11:27:31.123Z,99552.88
2023-01-09T11:32:33.603Z,99557.28
2023-01-09T11:37:35.105Z,99565.44
2023-01-09T11:42:51.704Z,99571.72
2023-01-09T11:47:53.327Z,99586.97
2023-01-09T11:53:17.995Z,99600.69
2023-01-09T11:58:21.800Z,99609.19
2023-01-09T12:03:26.181Z,99599.78
2023-01-09T12:08:41.165Z,99605.13
2023-01-09T12:14:20.250Z,99603.50
2023-01-09T12:19:40.607Z,99609.56
2023-01-09T12:25:30.325Z,99614.66
2023-01-09T12:30:49.860Z,99618.84
2023-01-09T12:36:16.130Z,99629.94
2023-01-09T12:41:23.027Z,99623.03
2023-01-09T12:46:28.615Z,99626.56
2023-01-09T12:51:49.029Z,99636.72
2023-01-09T12:57:00.157Z,99645.38
2023-01-09T13:02:28.313Z,99647.09
2023-01-09T13:07:38.694Z,99660.81
2023-01-09T13:12:43.992Z,99693.44
2023-01-09T13:17:51.165Z,99695.09
2023-01-09T13:22:55.050Z,99707.06
2023-01-09T13:28:02.466Z,99703.63
2023-01-09T13:33:22.121Z,99706.97
2023-01-09T13:38:25.909Z,99721.47
2023-01-09T13:43:27.376Z,99737.69
2023-01-09T13:48:39.730Z,99740.97
2023-01-09T13:53:41.096Z,99745.19
2023-01-09T13:58:54.885Z,99756.22
2023-01-09T14:04:15.910Z,99771.59
2023-01-09T14:09:21.848Z,99785.34
2023-01-09T14:14:28.944Z,99786.19
2023-01-09T14:19:37.472Z,99802.38
2023-01-09T14:24:46.647Z,99804.97
2023-01-09T14:29:48.164Z,99821.03
2023-01-09T14:35:10.879Z,99835.47
2023-01-09T14:40:22.030Z,99849.19
2023-01-09T14:45:25.806Z,99874.03
2023-01-09T14:50:37.854Z,99886.88
2023-01-09T14:55:42.247Z,99886.78
2023-01-09T15:00:57.181Z,99909.81
2023-01-09T15:05:59.146Z,99926.06
2023-01-09T15:11:00.702Z,99941.47
2023-01-09T15:16:05.011Z,99950.03
2023-01-09T15:21:06.767Z,99950.69
2023-01-09T15:26:26.141Z,99955.69
2023-01-09T15:31:28.626Z,99979.50
2023-01-09T15:36:31.102Z,99993.75
2023-01-09T15:41:51.278Z,100006.44
2023-01-09T15:47:01.466Z,100008.94
2023-01-09T15:52:04.499Z,100022.53
2023-01-09T15:57:30.749Z,100021.44
2023-01-09T16:02:50.884Z,100027.28
2023-01-09T16:07:53.844Z,100041.75
2023-01-09T16:12:55.566Z,100052.16
2023-01-09T16:18:18.328Z,100062.53
2023-01-09T16:23:30.513Z,100066.06
2023-01-09T16:28:32.164Z,100070.19
2023-01-09T16:33:34.591Z,100080.25
2023-01-09T16:38:36.017Z,100086.31
2023-01-09T16:43:37.460Z,100093.81
2023-01-09T16:48:39.479Z,100100.66
2023-01-09T16:53:40.864Z,100108.22
2023-01-09T16:58:42.356Z,100113.94
2023-01-09T17:03:44.462Z,100118.78
2023-01-09T17:08:46.977Z,100116.88
2023-01-09T17:13:48.695Z,100133.88
2023-01-09T17:18:50.371Z,100130.56
2023-01-09T17:24:10.728Z,100134.09
2023-01-09T17:29:12.111Z,100146.22
2023-01-09T17:34:13.583Z,100154.06
2023-01-09T17:39:18.869Z,100169.44
2023-01-09T17:44:20.289Z,100172.19
2023-01-09T17:49:22.322Z,100189.31
2023-01-09T17:54:23.716Z,100192.78
2023-01-09T17:59:26.350Z,100207.28
2023-01-09T18:04:29.047Z,100215.81
2023-01-09T18:09:30.485Z,100234.47
2023-01-09T18:14:31.940Z,100250.66
2023-01-09T18:19:33.860Z,100271.91
2023-01-09T18:24:35.394Z,100281.34
2023-01-09T18:29:36.901Z,100283.84
2023-01-09T18:34:38.719Z,100303.59
2023-01-09T18:39:40.097Z,100309.66
2023-01-09T18:44:41.883Z,100331.03
2023-01-09T18:49:43.337Z,100329.91
2023-01-09T18:54:44.930Z,100347.81
2023-01-09T18:59:46.377Z,100352.03
2023-01-09T19:04:48.022Z,100374.63
2023-01-09T19:09:51.433Z,100394.31
2023-01-09T19:14:53.058Z,100403.75
2023-01-09T19:19:54.632Z,100400.25
2023-01-09T19:24:56.083Z,100411.31
2023-01-09T19:30:00.292Z,100434.53
2023-01-09T19:35:01.731Z,100454.03
2023-01-09T19:40:05.195Z,100448.84
2023-01-09T19:45:07.336Z,100475.41
2023-01-09T19:50:09.573Z,100477.22
2023-01-09T19:55:13.695Z,100496.75
2023-01-09T20:00:18.092Z,100503.38
2023-01-09T20:05:19.751Z,100519.59
2023-01-09T20:10:21.276Z,100520.53
2023-01-09T20:15:22.991Z,100524.78
2023-01-09T20:20:24.436Z,100544.16
2023-01-09T20:25:28.288Z,100546.50
2023-01-09T20:30:29.663Z,100548.06
2023-01-09T20:35:31.503Z,100563.97
2023-01-09T20:40:35.251Z,100559.44
2023-01-09T20:45:36.697Z,100576.47
2023-01-09T20:50:39.375Z,100594.38
2023-01-09T20:55:40.835Z,100600.81
2023-01-09T21:00:43.665Z,100610.09
2023-01-09T21:05:50.769Z,100612.84
2023-01-09T21:10:57.473Z,100619.66
2023-01-09T21:16:04.761Z,100631.97
2023-01-09T21:21:09.500Z,100639.41
2023-01-09T21:26:13.452Z,100647.03
2023-01-09T21:31:18.133Z,100668.47
2023-01-09T21:36:19.789Z,100677.44
2023-01-09T21:41:41.652Z,100686.56
2023-01-09T21:46:52.192Z,100705.78
2023-01-09T21:51:54.741Z,100703.00
2023-01-09T21:56:56.488Z,100715.94
2023-01-09T22:01:58.156Z,100720.34
2023-01-09T22:06:59.639Z,100725.34
2023-01-09T22:12:04.431Z,100733.16
2023-01-09T22:17:05.876Z,100745.03
2023-01-09T22:22:08.499Z,100751.00
2023-01-09T22:27:10.338Z,100751.00
2023-01-09T22:32:11.811Z,100766.97
2023-01-09T22:37:13.305Z,100775.97
2023-01-09T22:42:18.007Z,100805.91
2023-01-09T22:47:19.452Z,100823.16
2023-01-09T22:52:21.662Z,100827.56
2023-01-09T22:57:23.190Z,100839.44
2023-01-09T23:02:24.861Z,100847.38
2023-01-09T23:07:26.719Z,100857.69
2023-01-09T23:12:28.244Z,100862.22
2023-01-09T23:17:29.837Z,100868.53
2023-01-09T23:22:31.211Z,100874.94
2023-01-09T23:27:32.739Z,100892.13
2023-01-09T23:32:34.163Z,100898.88
2023-01-09T23:37:35.670Z,100918.88
2023-01-09T23:42:55.451Z,100935.66
2023-01-09T23:47:56.814Z,100947.50
2023-01-09T23:52:58.456Z,100950.50
2023-01-09T23:57:59.992Z,100957.94
